Time;durP1;ratioP1;P1;durP2;ratioP2;P2;SDS_P1;SDS_P2;PMS_P1;PMS_P2;Temp;Humidity;BMP_temperature;BMP_pressure;BME280_temperature;BME280_humidity;BME280_pressure;Samples;Min_cycle;Max_cycle;Signal;HPM_P1;HPM_P2
2024/02/06 00:01:47;;;;;;;9.43;7.63;;;;;;;8.28;100.00;100448.72;4994170;28;20207;-80
2024/02/06 00:04:15;;;;;;;9.37;7.20;;;;;;;8.23;100.00;100442.84;4995377;28;20739;-82
2024/02/06 00:06:41;;;;;;;9.50;6.87;;;;;;;8.25;100.00;100448.88;4994523;28;20262;-80
2024/02/06 00:09:09;;;;;;;11.33;8.00;;;;;;;8.19;100.00;100441.28;4995307;28;20648;-80
2024/02/06 00:11:35;;;;;;;9.53;7.30;;;;;;;8.21;100.00;100431.47;4993733;28;20227;-79
2024/02/06 00:14:02;;;;;;;9.03;7.20;;;;;;;8.22;100.00;100427.00;4992901;28;20228;-81
2024/02/06 00:16:29;;;;;;;13.03;7.90;;;;;;;8.23;100.00;100423.41;4995572;28;20250;-80
2024/02/06 00:18:56;;;;;;;9.37;6.67;;;;;;;8.26;100.00;100421.41;4998568;28;20202;-83
2024/02/06 00:21:24;;;;;;;11.77;6.80;;;;;;;8.24;100.00;100410.03;4996128;28;20208;-82
2024/02/06 00:23:50;;;;;;;8.33;6.87;;;;;;;8.19;100.00;100421.88;4993240;28;20789;-80
2024/02/06 00:26:16;;;;;;;9.57;5.83;;;;;;;8.19;100.00;100416.56;4992806;28;20723;-80
2024/02/06 00:28:43;;;;;;;6.47;4.93;;;;;;;8.17;100.00;100414.00;4994536;28;20234;-80
2024/02/06 00:31:10;;;;;;;6.17;5.13;;;;;;;8.14;100.00;100413.31;4992877;28;20238;-81
2024/02/06 00:33:36;;;;;;;5.53;4.33;;;;;;;8.11;100.00;100411.69;4993909;28;20714;-82
2024/02/06 00:36:03;;;;;;;4.70;4.17;;;;;;;8.12;100.00;100400.13;4993080;28;20577;-82
2024/02/06 00:38:31;;;;;;;5.67;4.27;;;;;;;8.11;100.00;100406.38;4996584;28;20232;-80
2024/02/06 00:40:57;;;;;;;5.53;3.60;;;;;;;8.13;100.00;100398.34;4994084;28;20393;-81
2024/02/06 00:43:24;;;;;;;4.07;3.30;;;;;;;8.10;100.00;100394.06;4994098;28;20210;-80
2024/02/06 00:45:51;;;;;;;5.93;3.43;;;;;;;8.07;100.00;100391.56;4993306;28;20229;-82
2024/02/06 00:48:18;;;;;;;4.93;3.70;;;;;;;8.07;100.00;100391.56;4996459;28;20242;-81
2024/02/06 00:50:45;;;;;;;4.43;3.27;;;;;;;8.12;100.00;100383.34;4991580;28;20214;-81
2024/02/06 00:53:11;;;;;;;4.40;3.00;;;;;;;8.13;100.00;100382.41;4997232;28;20207;-81
2024/02/06 00:55:39;;;;;;;4.03;2.60;;;;;;;8.10;100.00;100374.63;4993870;28;20204;-80
2024/02/06 00:58:06;;;;;;;4.63;3.03;;;;;;;8.03;100.00;100371.50;4994929;28;20226;-81
2024/02/06 01:00:35;;;;;;;4.67;2.90;;;;;;;8.02;100.00;100375.94;4995660;28;20204;-80
2024/02/06 01:03:02;;;;;;;3.87;2.93;;;;;;;8.04;100.00;100375.00;4996465;28;20211;-81
2024/02/06 01:05:28;;;;;;;5.80;3.83;;;;;;;8.00;100.00;100367.22;4991488;28;20657;-81
2024/02/06 01:07:55;;;;;;;5.57;4.00;;;;;;;7.99;100.00;100368.16;4993127;28;20231;-80
2024/02/06 01:10:21;;;;;;;4.70;4.10;;;;;;;7.99;100.00;100370.81;4991979;28;20304;-80
2024/02/06 01:12:49;;;;;;;6.37;4.20;;;;;;;8.00;100.00;100375.19;4993909;28;20838;-79
2024/02/06 01:15:15;;;;;;;5.37;3.80;;;;;;;8.01;100.00;100370.72;4994147;28;20204;-80
2024/02/06 01:17:42;;;;;;;7.50;4.93;;;;;;;7.99;100.00;100373.47;4991989;28;20752;-81
2024/02/06 01:20:09;;;;;;;4.67;3.87;;;;;;;7.99;100.00;100367.31;4988215;28;20243;-82
2024/02/06 01:22:35;;;;;;;6.73;3.97;;;;;;;8.00;100.00;100375.19;4990534;28;20200;-80
2024/02/06 01:25:03;;;;;;;5.57;3.80;;;;;;;8.00;100.00;100374.31;4999571;28;20683;-81
2024/02/06 01:27:30;;;;;;;5.47;4.37;;;;;;;7.95;100.00;100377.22;4990417;28;20224;-80
2024/02/06 01:29:58;;;;;;;5.53;4.07;;;;;;;7.93;100.00;100373.81;5001060;28;20656;-81
2024/02/06 01:32:24;;;;;;;5.77;4.40;;;;;;;7.95;100.00;100373.72;5000503;28;20571;-81
2024/02/06 01:34:50;;;;;;;5.77;4.40;;;;;;;7.95;100.00;100361.31;4991608;28;20671;-80
2024/02/06 01:37:17;;;;;;;5.90;4.83;;;;;;;7.95;100.00;100355.16;4996059;28;20234;-81
2024/02/06 01:39:44;;;;;;;5.70;4.90;;;;;;;7.95;100.00;100356.00;4996986;28;20239;-81
2024/02/06 01:42:10;;;;;;;6.83;5.30;;;;;;;7.96;100.00;100346.25;4998020;28;20214;-81
2024/02/06 01:44:37;;;;;;;7.83;5.53;;;;;;;7.95;100.00;100347.19;4990086;28;20204;-80
2024/02/06 01:47:08;;;;;;;8.07;6.47;;;;;;;7.95;100.00;100341.91;4996818;28;20231;-81
2024/02/06 01:49:35;;;;;;;10.03;6.70;;;;;;;7.92;100.00;100329.66;4988468;28;20200;-80
2024/02/06 01:52:02;;;;;;;8.20;6.57;;;;;;;7.95;100.00;100328.63;4996017;28;20705;-82
2024/02/06 01:54:29;;;;;;;11.37;6.07;;;;;;;7.94;100.00;100319.81;4997159;28;20306;-80
2024/02/06 01:56:56;;;;;;;9.00;6.37;;;;;;;7.95;100.00;100326.00;4996330;28;20227;-80
2024/02/06 01:59:22;;;;;;;10.77;7.20;;;;;;;7.96;100.00;100320.59;5003378;28;20218;-81
2024/02/06 02:01:50;;;;;;;11.50;7.27;;;;;;;7.97;100.00;100317.00;4999773;28;20559;-80
2024/02/06 02:04:18;;;;;;;9.53;6.80;;;;;;;7.95;100.00;100320.69;4997627;28;20211;-80
2024/02/06 02:06:45;;;;;;;11.57;7.53;;;;;;;7.98;100.00;100315.22;4995747;28;20232;-80
2024/02/06 02:09:12;;;;;;;10.97;7.40;;;;;;;7.92;100.00;100315.53;5000216;28;20250;-81
2024/02/06 02:11:38;;;;;;;11.30;7.50;;;;;;;7.91;100.00;100316.50;4998450;28;20247;-82
2024/02/06 02:14:05;;;;;;;8.37;6.00;;;;;;;7.94;100.00;100316.31;4998468;28;20214;-82
2024/02/06 02:16:32;;;;;;;8.80;6.20;;;;;;;7.92;100.00;100315.53;4997468;28;20200;-81
2024/02/06 02:18:58;;;;;;;8.40;6.90;;;;;;;7.93;100.00;100311.97;5004739;28;20203;-81
2024/02/06 02:21:26;;;;;;;7.57;6.13;;;;;;;7.95;100.00;100310.06;4997657;28;20206;-81
2024/02/06 02:23:53;;;;;;;9.80;6.33;;;;;;;7.96;100.00;100306.47;4991297;28;20624;-82
2024/02/06 02:26:21;;;;;;;7.40;5.93;;;;;;;7.95;100.00;100305.63;4998775;28;20235;-81
2024/02/06 02:28:48;;;;;;;7.17;6.43;;;;;;;7.97;100.00;100297.59;5000319;28;20607;-81
2024/02/06 02:31:15;;;;;;;8.10;6.77;;;;;;;7.99;100.00;100314.25;5003576;28;20214;-81
2024/02/06 02:33:42;;;;;;;9.47;6.97;;;;;;;7.96;100.00;100298.53;4994764;28;20199;-82
2024/02/06 02:36:10;;;;;;;9.63;7.57;;;;;;;8.02;100.00;100311.44;4995217;28;20571;-82
2024/02/06 02:38:39;;;;;;;9.20;7.37;;;;;;;8.02;100.00;100303.50;4999909;28;20220;-83
2024/02/06 02:41:06;;;;;;;9.03;7.57;;;;;;;8.05;100.00;100300.66;4995734;28;20230;-83
2024/02/06 02:43:33;;;;;;;8.97;6.57;;;;;;;8.04;100.00;100288.34;4997374;28;20210;-82
2024/02/06 02:45:59;;;;;;;9.23;7.13;;;;;;;8.04;100.00;100277.72;4993950;28;20634;-82
2024/02/06 02:48:26;;;;;;;9.87;7.40;;;;;;;8.06;100.00;100275.00;4998523;28;20865;-82
2024/02/06 02:50:52;;;;;;;8.80;7.20;;;;;;;8.05;100.00;100284.75;4994420;28;20200;-82
2024/02/06 02:53:19;;;;;;;10.13;6.80;;;;;;;8.05;100.00;100279.44;4996011;28;20217;-82
2024/02/06 02:55:46;;;;;;;8.30;6.97;;;;;;;8.10;100.00;100277.34;4994208;28;20223;-83
2024/02/06 02:58:13;;;;;;;9.97;7.70;;;;;;;8.06;100.00;100278.47;5002213;28;20231;-82
2024/02/06 03:00:39;;;;;;;9.73;7.13;;;;;;;8.06;100.00;100261.72;4995685;28;20204;-82
2024/02/06 03:03:07;;;;;;;9.87;7.37;;;;;;;8.09;100.00;100256.22;5003752;28;20203;-82
2024/02/06 03:05:33;;;;;;;8.60;6.80;;;;;;;8.09;100.00;100254.41;4993838;28;20208;-82
2024/02/06 03:08:00;;;;;;;9.37;6.60;;;;;;;8.09;100.00;100258.88;4996595;28;20232;-82
2024/02/06 03:10:27;;;;;;;10.93;6.27;;;;;;;8.10;100.00;100249.97;4996751;28;20210;-81
2024/02/06 03:12:54;;;;;;;6.97;6.07;;;;;;;8.08;100.00;100241.25;4995619;28;20203;-82
2024/02/06 03:15:20;;;;;;;7.00;6.27;;;;;;;8.10;100.00;100237.56;4997302;28;20207;-81
2024/02/06 03:17:51;;;;;;;9.57;5.80;;;;;;;8.14;100.00;100241.75;4996038;28;20234;-80
2024/02/06 03:20:19;;;;;;;6.60;5.90;;;;;;;8.11;100.00;100225.16;4996865;28;20210;-81
2024/02/06 03:22:45;;;;;;;7.73;5.70;;;;;;;8.14;100.00;100232.94;4995675;28;20238;-81
2024/02/06 03:25:12;;;;;;;7.57;6.00;;;;;;;8.14;100.00;100223.19;4992810;28;20214;-81
2024/02/06 03:27:41;;;;;;;5.83;5.23;;;;;;;8.12;100.00;100225.06;4993564;28;20603;-81
2024/02/06 03:30:10;;;;;;;8.27;5.77;;;;;;;8.11;100.00;100212.75;4988923;28;20208;-81
2024/02/06 03:32:37;;;;;;;6.33;5.60;;;;;;;8.13;100.00;100221.47;4996591;28;20210;-81
2024/02/06 03:35:05;;;;;;;7.47;5.63;;;;;;;8.13;100.00;100217.97;4993103;28;20235;-80
2024/02/06 03:37:32;;;;;;;5.50;5.00;;;;;;;8.16;100.00;100223.94;4994943;28;20227;-79
2024/02/06 03:39:58;;;;;;;6.97;5.43;;;;;;;8.20;100.00;100214.88;4994875;28;20210;-80
2024/02/06 03:42:25;;;;;;;6.97;5.37;;;;;;;8.18;100.00;100203.50;4994199;28;20208;-80
2024/02/06 03:44:51;;;;;;;6.93;5.63;;;;;;;8.14;100.00;100207.25;4996962;28;20214;-81
2024/02/06 03:47:19;;;;;;;7.20;5.20;;;;;;;8.12;100.00;100198.53;4989408;28;20238;-80
2024/02/06 03:49:45;;;;;;;9.13;5.37;;;;;;;8.12;100.00;100201.19;4995019;28;20212;-81
2024/02/06 03:52:13;;;;;;;5.83;5.03;;;;;;;8.15;100.00;100200.16;4992352;28;20212;-81
2024/02/06 03:54:39;;;;;;;7.40;5.23;;;;;;;8.18;100.00;100187.56;5000631;28;21104;-82
2024/02/06 03:57:06;;;;;;;6.63;5.30;;;;;;;8.19;100.00;100193.72;4997990;28;20771;-81
2024/02/06 03:59:32;;;;;;;7.80;5.60;;;;;;;8.16;100.00;100191.25;4995896;28;20699;-81
2024/02/06 04:01:59;;;;;;;6.03;5.13;;;;;;;8.15;100.00;100197.50;4997447;28;20214;-81
2024/02/06 04:04:26;;;;;;;7.00;6.03;;;;;;;8.14;100.00;100191.34;4995359;28;20207;-82
2024/02/06 04:06:53;;;;;;;6.80;5.37;;;;;;;8.14;100.00;100185.19;4999420;28;20241;-81
2024/02/06 04:09:20;;;;;;;9.80;7.47;;;;;;;8.16;100.00;100191.25;5001012;28;20208;-81
2024/02/06 04:11:46;;;;;;;6.40;5.07;;;;;;;8.16;100.00;100194.78;4998995;28;20575;-84
2024/02/06 04:14:13;;;;;;;6.43;5.17;;;;;;;8.15;100.00;100193.06;5003273;28;20214;-83
2024/02/06 04:16:39;;;;;;;7.60;4.50;;;;;;;8.19;100.00;100183.97;4987856;28;20222;-80
2024/02/06 04:19:06;;;;;;;6.40;4.40;;;;;;;8.20;100.00;100192.78;4995067;28;20648;-81
2024/02/06 04:21:34;;;;;;;6.67;4.53;;;;;;;8.22;100.00;100194.41;4995325;28;20749;-81
2024/02/06 04:24:01;;;;;;;6.10;4.37;;;;;;;8.22;100.00;100186.44;5003180;28;20203;-83
2024/02/06 04:26:27;;;;;;;8.97;5.07;;;;;;;8.24;100.00;100187.19;4992984;28;20218;-82
2024/02/06 04:28:54;;;;;;;5.87;4.43;;;;;;;8.26;100.00;100182.63;4998627;28;20223;-82
2024/02/06 04:31:20;;;;;;;5.80;4.33;;;;;;;8.27;100.00;100179.03;4999057;28;20206;-81
2024/02/06 04:33:47;;;;;;;4.67;4.17;;;;;;;8.28;100.00;100178.09;4993243;28;20199;-81
2024/02/06 04:36:13;;;;;;;9.73;4.30;;;;;;;8.30;100.00;100170.03;4993777;28;20208;-81
2024/02/06 04:38:41;;;;;;;4.37;3.80;;;;;;;8.28;100.00;100162.19;4993318;28;20226;-82
2024/02/06 04:41:08;;;;;;;5.47;3.70;;;;;;;8.29;100.00;100171.00;4990653;28;20223;-83
2024/02/06 04:43:34;;;;;;;3.97;3.13;;;;;;;8.31;100.00;100161.13;4993841;28;20211;-82
2024/02/06 04:46:01;;;;;;;4.83;3.40;;;;;;;8.30;100.00;100168.25;4999039;28;20212;-82
2024/02/06 04:48:27;;;;;;;4.87;3.60;;;;;;;8.31;100.00;100156.69;4994305;28;20234;-83
2024/02/06 04:50:54;;;;;;;5.70;3.33;;;;;;;8.33;100.00;100159.28;4994155;28;20231;-82
2024/02/06 04:53:20;;;;;;;6.23;4.37;;;;;;;8.31;100.00;100162.00;4994244;28;20219;-80
2024/02/06 04:55:48;;;;;;;4.43;3.60;;;;;;;8.34;100.00;100151.22;5001379;28;20199;-81
2024/02/06 04:58:15;;;;;;;4.70;3.57;;;;;;;8.32;100.00;100150.47;5000209;28;20215;-84
2024/02/06 05:00:41;;;;;;;6.03;3.73;;;;;;;8.35;100.00;100152.94;4998845;28;20207;-81
2024/02/06 05:03:08;;;;;;;4.80;3.10;;;;;;;8.39;100.00;100158.06;5000316;28;20211;-80
2024/02/06 05:05:34;;;;;;;5.83;3.67;;;;;;;8.35;100.00;100155.59;5001128;28;20207;-81
2024/02/06 05:08:01;;;;;;;4.40;3.53;;;;;;;8.34;100.00;100158.34;4997149;28;20238;-80
2024/02/06 05:10:27;;;;;;;5.63;3.60;;;;;;;8.36;100.00;100153.78;4999607;28;20203;-81
2024/02/06 05:12:55;;;;;;;5.77;3.90;;;;;;;8.35;100.00;100152.94;4995176;28;20204;-82
2024/02/06 05:15:21;;;;;;;6.17;4.07;;;;;;;8.37;100.00;100152.00;4994808;28;20219;-80
2024/02/06 05:17:48;;;;;;;5.37;3.90;;;;;;;8.38;100.00;100143.94;4993627;28;20226;-82
2024/02/06 05:20:15;;;;;;;5.27;4.30;;;;;;;8.39;100.00;100152.75;5001765;28;20218;-81
2024/02/06 05:22:41;;;;;;;5.87;3.70;;;;;;;8.39;100.00;100145.66;4994578;28;20591;-80
2024/02/06 05:25:08;;;;;;;6.00;4.33;;;;;;;8.41;100.00;100150.84;4999021;28;20218;-83
2024/02/06 05:27:37;;;;;;;5.80;4.03;;;;;;;8.41;100.00;100130.47;4996752;28;20235;-82
2024/02/06 05:30:06;;;;;;;6.17;4.27;;;;;;;8.43;100.00;100135.66;4996673;28;20206;-81
2024/02/06 05:32:32;;;;;;;4.33;3.20;;;;;;;8.44;100.00;100130.25;4998760;28;20206;-80
2024/02/06 05:34:59;;;;;;;6.10;4.00;;;;;;;8.45;100.00;100129.31;4993926;28;20204;-81
2024/02/06 05:37:26;;;;;;;5.37;4.60;;;;;;;8.46;100.00;100127.50;4995337;28;20734;-80
2024/02/06 05:39:52;;;;;;;5.47;3.83;;;;;;;8.45;100.00;100139.94;4989973;28;20212;-82
2024/02/06 05:42:19;;;;;;;5.30;3.70;;;;;;;8.44;100.00;100129.41;5002197;28;20583;-82
2024/02/06 05:44:45;;;;;;;5.60;4.37;;;;;;;8.47;100.00;100121.25;4997529;28;20210;-80
2024/02/06 05:47:13;;;;;;;5.40;4.23;;;;;;;8.48;100.00;100128.28;5003080;28;20947;-80
2024/02/06 05:49:39;;;;;;;9.47;4.73;;;;;;;8.48;100.00;100125.63;4998953;28;20203;-81
2024/02/06 05:52:06;;;;;;;6.00;4.20;;;;;;;8.50;100.00;100127.22;4993752;28;20203;-80
2024/02/06 05:54:32;;;;;;;8.13;4.57;;;;;;;8.50;100.00;100113.97;5003702;28;20207;-81
2024/02/06 05:56:59;;;;;;;7.07;4.50;;;;;;;8.53;100.00;100120.88;4994410;28;20244;-81
2024/02/06 05:59:27;;;;;;;6.07;4.40;;;;;;;8.53;100.00;100112.91;4998615;28;20589;-79
2024/02/06 06:01:54;;;;;;;8.43;4.27;;;;;;;8.54;100.00;100114.63;4992253;28;20207;-81
2024/02/06 06:04:22;;;;;;;6.80;4.10;;;;;;;8.53;100.00;100102.31;4998560;28;20891;-79
2024/02/06 06:06:48;;;;;;;4.63;3.63;;;;;;;8.52;100.00;100105.91;5003167;28;20211;-80
2024/02/06 06:09:15;;;;;;;7.50;5.30;;;;;;;8.56;100.00;100110.09;5003634;28;20226;-79
2024/02/06 06:11:41;;;;;;;4.70;4.27;;;;;;;8.57;100.00;100107.34;5000132;28;20219;-79
2024/02/06 06:14:09;;;;;;;4.57;4.17;;;;;;;8.61;100.00;100105.31;4996193;28;20211;-84
2024/02/06 06:16:35;;;;;;;5.67;3.80;;;;;;;8.60;100.00;100109.75;4998444;28;20242;-80
2024/02/06 06:19:02;;;;;;;6.13;4.63;;;;;;;8.62;100.00;100112.31;5002920;28;20199;-79
2024/02/06 06:21:29;;;;;;;8.03;4.93;;;;;;;8.61;100.00;100103.50;4998311;28;20207;-82
2024/02/06 06:23:56;;;;;;;5.93;4.33;;;;;;;8.65;100.00;100102.38;5008115;28;20199;-80
2024/02/06 06:26:22;;;;;;;6.13;4.00;;;;;;;8.65;100.00;100102.38;4994887;28;20210;-81
2024/02/06 06:28:49;;;;;;;5.13;4.20;;;;;;;8.71;100.00;100101.13;5002794;28;20594;-80
2024/02/06 06:31:15;;;;;;;6.27;4.17;;;;;;;8.71;100.00;100098.47;5001195;28;20207;-80
2024/02/06 06:33:42;;;;;;;7.57;4.60;;;;;;;8.73;100.00;100107.19;5002074;28;20207;-80
2024/02/06 06:36:12;;;;;;;8.03;5.27;;;;;;;8.69;100.00;100097.72;5001612;28;20251;-82
2024/02/06 06:38:40;;;;;;;7.57;5.03;;;;;;;8.72;100.00;100092.22;5004016;28;20228;-81
2024/02/06 06:41:06;;;;;;;6.90;4.93;;;;;;;8.70;100.00;100087.00;4996455;28;20230;-79
2024/02/06 06:43:33;;;;;;;7.07;4.93;;;;;;;8.71;100.00;100087.84;5001629;28;20204;-79
2024/02/06 06:46:00;;;;;;;7.23;4.70;;;;;;;8.71;100.00;100090.50;5000537;28;20275;-81
2024/02/06 06:48:29;;;;;;;4.30;3.90;;;;;;;8.69;100.00;100093.25;4996148;28;20232;-79
2024/02/06 06:50:55;;;;;;;5.60;4.00;;;;;;;8.69;100.00;100089.75;4997156;28;20212;-81
2024/02/06 06:53:22;;;;;;;6.20;3.73;;;;;;;8.72;100.00;100091.38;4999524;28;20211;-82
2024/02/06 06:55:50;;;;;;;4.43;4.03;;;;;;;8.70;100.00;100094.13;4997409;28;20210;-81
2024/02/06 06:58:16;;;;;;;4.83;3.57;;;;;;;8.68;100.00;100083.59;4998881;28;20309;-81
2024/02/06 07:00:43;;;;;;;5.67;3.53;;;;;;;8.68;100.00;100085.41;4998137;28;20219;-79
2024/02/06 07:03:09;;;;;;;5.03;3.77;;;;;;;8.67;100.00;100079.22;5002034;28;20214;-79
2024/02/06 07:05:36;;;;;;;8.10;4.37;;;;;;;8.65;100.00;100091.75;4999308;28;20212;-79
2024/02/06 07:08:03;;;;;;;7.80;4.03;;;;;;;8.62;100.00;100091.09;5000286;28;20346;-81
2024/02/06 07:10:30;;;;;;;5.00;3.47;;;;;;;8.57;100.00;100079.94;5006180;28;20235;-80
2024/02/06 07:12:58;;;;;;;6.53;3.50;;;;;;;8.56;100.00;100076.44;5006223;28;20222;-82
2024/02/06 07:15:25;;;;;;;7.33;3.83;;;;;;;8.55;100.00;100064.09;5001423;28;20200;-81
2024/02/06 07:17:51;;;;;;;4.00;3.07;;;;;;;8.53;100.00;100062.50;5000124;28;20224;-82
2024/02/06 07:20:18;;;;;;;5.57;3.23;;;;;;;8.53;100.00;100073.97;4998378;28;20686;-79
2024/02/06 07:22:44;;;;;;;5.73;3.57;;;;;;;8.53;100.00;100062.50;4998276;28;20568;-80
2024/02/06 07:25:10;;;;;;;4.07;3.13;;;;;;;8.51;100.00;100078.53;5000832;28;20212;-80
2024/02/06 07:27:38;;;;;;;4.90;3.17;;;;;;;8.56;100.00;100057.84;5001322;28;20386;-82
2024/02/06 07:30:07;;;;;;;6.07;3.60;;;;;;;8.59;100.00;100064.78;4999310;28;20211;-81
2024/02/06 07:32:33;;;;;;;3.73;3.10;;;;;;;8.57;100.00;100071.97;5000157;28;20208;-81
2024/02/06 07:35:00;;;;;;;6.67;3.40;;;;;;;8.60;100.00;100061.97;5008919;28;20217;-82
2024/02/06 07:37:26;;;;;;;7.67;3.87;;;;;;;8.64;100.00;100068.81;5001626;28;20234;-83
2024/02/06 07:39:53;;;;;;;5.47;3.83;;;;;;;8.66;100.00;100056.28;5001235;28;20206;-81
2024/02/06 07:42:20;;;;;;;7.20;3.27;;;;;;;8.67;100.00;100059.81;4997447;28;20212;-81
2024/02/06 07:44:46;;;;;;;5.03;3.57;;;;;;;8.68;100.00;100053.53;5006597;28;20211;-81
2024/02/06 07:47:14;;;;;;;3.53;2.80;;;;;;;8.66;100.00;100050.97;5003881;28;20227;-79
2024/02/06 07:49:40;;;;;;;5.03;2.80;;;;;;;8.66;100.00;100040.38;4994806;28;20235;-82
2024/02/06 07:52:07;;;;;;;3.53;2.77;;;;;;;8.72;100.00;100065.66;4994097;28;20210;-82
2024/02/06 07:54:33;;;;;;;4.33;2.40;;;;;;;8.72;100.00;100043.59;4996525;28;20214;-79
2024/02/06 07:57:00;;;;;;;3.53;2.53;;;;;;;8.77;100.00;100038.84;4997960;28;20233;-79
2024/02/06 07:59:26;;;;;;;5.23;3.33;;;;;;;8.76;100.00;100045.94;5002533;28;20203;-80
2024/02/06 08:01:53;;;;;;;2.93;2.53;;;;;;;8.79;100.00;100034.25;4998854;28;20211;-81
2024/02/06 08:04:22;;;;;;;3.37;2.63;;;;;;;8.80;100.00;100041.25;4996487;28;20216;-79
2024/02/06 08:06:48;;;;;;;7.00;2.90;;;;;;;8.85;100.00;100042.66;4997412;28;20687;-80
2024/02/06 08:09:15;;;;;;;5.87;2.50;;;;;;;8.88;100.00;100036.31;5004906;28;20226;-81
2024/02/06 08:11:42;;;;;;;4.20;2.50;;;;;;;8.87;100.00;100032.81;4992644;28;20204;-82
2024/02/06 08:14:12;;;;;;;4.13;2.17;;;;;;;8.90;100.00;100031.75;4988774;28;20219;-83
2024/02/06 08:16:39;;;;;;;5.03;2.47;;;;;;;8.90;100.00;100015.81;4992979;28;20238;-81
2024/02/06 08:19:05;;;;;;;3.40;2.50;;;;;;;8.93;100.00;100029.75;4996137;28;20199;-81
2024/02/06 08:21:33;;;;;;;4.87;2.33;;;;;;;8.93;100.00;100019.13;4997451;28;20684;-79
2024/02/06 08:23:59;;;;;;;4.30;2.03;;;;;;;8.96;100.00;100020.69;4994043;28;20585;-79
2024/02/06 08:26:26;;;;;;;3.10;1.97;;;;;;;8.94;100.00;100023.50;5005806;28;20207;-80
2024/02/06 08:28:52;;;;;;;3.13;2.37;;;;;;;8.94;100.00;100015.53;4995065;28;20235;-83
2024/02/06 08:31:22;;;;;;;3.27;2.00;;;;;;;8.96;100.00;100015.38;4997040;28;20218;-79
2024/02/06 08:33:49;;;;;;;5.03;1.90;;;;;;;8.96;100.00;100012.72;4999387;28;20307;-80
2024/02/06 08:36:16;;;;;;;5.53;1.90;;;;;;;8.99;100.00;99992.13;4999128;28;20210;-80
2024/02/06 08:38:44;;;;;;;4.03;2.10;;;;;;;9.01;100.00;100003.50;4999332;28;20223;-80
2024/02/06 08:41:10;;;;;;;5.40;2.30;;;;;;;9.02;100.00;100005.22;5002392;28;20608;-79
2024/02/06 08:43:37;;;;;;;4.13;2.17;;;;;;;9.07;100.00;100004.91;5003235;28;20218;-80
2024/02/06 08:46:05;;;;;;;3.00;2.33;;;;;;;9.06;100.00;100011.19;5003530;28;20210;-80
2024/02/06 08:48:32;;;;;;;3.03;2.20;;;;;;;9.05;100.00;100005.03;5001322;28;20706;-79
2024/02/06 08:50:59;;;;;;;3.07;2.00;;;;;;;9.09;100.00;100007.47;5007543;28;20223;-79
2024/02/06 08:53:26;;;;;;;7.23;2.10;;;;;;;9.08;100.00;100005.78;4998778;28;20507;-79
2024/02/06 08:55:54;;;;;;;3.83;1.90;;;;;;;9.12;100.00;100007.28;4999631;28;20238;-79
2024/02/06 08:58:21;;;;;;;3.00;2.07;;;;;;;9.12;100.00;99999.31;5002466;28;20273;-81
2024/02/06 09:00:47;;;;;;;4.60;2.33;;;;;;;9.15;100.00;99991.09;4999395;28;20272;-79
2024/02/06 09:03:14;;;;;;;3.87;2.37;;;;;;;9.18;100.00;99986.44;5001043;28;20204;-82
2024/02/06 09:05:41;;;;;;;3.63;2.30;;;;;;;9.18;100.00;99996.22;5006202;28;20210;-79
2024/02/06 09:08:08;;;;;;;4.77;2.40;;;;;;;9.17;100.00;99981.22;5004589;28;20277;-81
2024/02/06 09:10:34;;;;;;;4.07;2.40;;;;;;;9.18;100.00;99975.81;5005447;28;20195;-79
2024/02/06 09:13:03;;;;;;;3.93;1.77;;;;;;;9.22;100.00;100001.22;5002410;28;20232;-80
2024/02/06 09:15:30;;;;;;;3.23;2.13;;;;;;;9.23;100.00;99992.28;5003956;28;20210;-80
2024/02/06 09:17:56;;;;;;;3.87;2.10;;;;;;;9.25;100.00;99973.59;5005500;28;20322;-80
2024/02/06 09:20:23;;;;;;;3.60;2.53;;;;;;;9.27;100.00;99987.63;5004537;28;20316;-83
2024/02/06 09:22:49;;;;;;;4.03;2.50;;;;;;;9.27;100.00;99980.50;5001354;28;20207;-79
2024/02/06 09:25:16;;;;;;;3.90;2.50;;;;;;;9.31;100.00;99968.72;5006176;28;20218;-78
2024/02/06 09:27:43;;;;;;;2.07;1.73;;;;;;;9.29;100.00;99952.03;5008894;28;20235;-81
2024/02/06 09:30:12;;;;;;;3.10;2.20;;;;;;;9.29;100.00;99975.94;5004424;28;20765;-78
2024/02/06 09:32:39;;;;;;;3.73;2.27;;;;;;;9.29;100.00;99975.09;5008614;28;20211;-79
2024/02/06 09:35:06;;;;;;;3.17;2.63;;;;;;;9.35;100.00;99972.00;4998549;28;20730;-81
2024/02/06 09:37:33;;;;;;;4.40;2.30;;;;;;;9.38;100.00;99974.44;5002514;28;20289;-80
2024/02/06 09:40:00;;;;;;;4.27;3.03;;;;;;;9.40;100.00;99983.16;5005632;28;20224;-81
2024/02/06 09:42:28;;;;;;;6.03;2.70;;;;;;;9.36;100.00;99984.31;5007007;28;20204;-81
2024/02/06 09:44:55;;;;;;;5.30;2.67;;;;;;;9.35;100.00;99977.31;4999008;28;20288;-81
2024/02/06 09:47:24;;;;;;;5.07;2.80;;;;;;;9.37;100.00;99980.72;4996603;28;20890;-81
2024/02/06 09:49:50;;;;;;;8.17;3.40;;;;;;;9.39;100.00;99978.81;4999137;28;20228;-78
2024/02/06 09:52:21;;;;;;;5.30;3.17;;;;;;;9.34;100.00;99967.63;4998644;28;20372;-81
2024/02/06 09:54:50;;;;;;;3.27;2.83;;;;;;;9.37;100.00;99962.09;5001923;28;20608;-81
2024/02/06 09:57:21;;;;;;;5.50;3.83;;;;;;;9.39;100.00;99976.16;5000269;28;20255;-80
2024/02/06 09:59:51;;;;;;;5.03;3.97;;;;;;;9.43;99.76;99959.03;4994767;28;20238;-81
2024/02/06 10:02:20;;;;;;;4.70;3.47;;;;;;;9.44;99.75;99965.19;5001499;28;20211;-79
2024/02/06 10:04:51;;;;;;;5.63;3.57;;;;;;;9.48;99.51;99959.56;4992653;28;20211;-81
2024/02/06 10:07:18;;;;;;;4.43;3.13;;;;;;;9.47;99.44;99968.50;5001116;28;20237;-79
2024/02/06 10:09:46;;;;;;;7.37;3.63;;;;;;;9.54;99.08;99976.88;5002069;28;20243;-78
2024/02/06 10:12:14;;;;;;;7.73;2.90;;;;;;;9.53;98.85;99968.06;5005291;28;20383;-81
2024/02/06 10:14:41;;;;;;;5.97;3.20;;;;;;;9.57;98.07;99950.94;4998670;28;20596;-81
2024/02/06 10:17:09;;;;;;;3.90;2.80;;;;;;;9.54;97.96;99948.50;4998961;28;20238;-81
2024/02/06 10:19:35;;;;;;;4.13;3.00;;;;;;;9.56;97.92;99965.19;5005800;28;20761;-83
2024/02/06 10:22:03;;;;;;;3.83;3.23;;;;;;;9.57;97.89;99955.41;5005810;28;20226;-82
2024/02/06 10:24:30;;;;;;;5.37;2.60;;;;;;;9.61;98.25;99949.78;5007737;28;20299;-82
2024/02/06 10:27:00;;;;;;;2.77;2.37;;;;;;;9.65;97.88;99950.41;5000512;28;20231;-79
2024/02/06 10:29:28;;;;;;;5.03;2.67;;;;;;;9.67;97.45;99941.34;4997748;28;20232;-82
2024/02/06 10:31:58;;;;;;;5.00;2.80;;;;;;;9.71;96.94;99956.13;5003591;28;20235;-81
2024/02/06 10:34:26;;;;;;;5.83;3.00;;;;;;;9.72;97.39;99952.50;5008495;28;20290;-80
2024/02/06 10:36:57;;;;;;;5.57;2.90;;;;;;;9.75;97.17;99941.66;4991498;28;20254;-82
2024/02/06 10:39:28;;;;;;;7.00;2.70;;;;;;;9.78;97.18;99953.91;4994448;28;21615;-80
2024/02/06 10:41:59;;;;;;;4.37;2.73;;;;;;;9.80;97.46;99949.31;4996263;28;20237;-79
2024/02/06 10:44:28;;;;;;;5.57;2.37;;;;;;;9.85;97.33;99941.88;4997104;28;20200;-80
2024/02/06 10:47:01;;;;;;;7.27;2.70;;;;;;;9.88;97.35;99938.97;5001872;28;20210;-80
2024/02/06 10:49:27;;;;;;;7.33;2.80;;;;;;;9.91;97.95;99946.72;5000184;28;20586;-81
2024/02/06 10:52:02;;;;;;;4.80;2.70;;;;;;;9.93;97.74;99926.19;4991950;28;20234;-80
2024/02/06 10:54:30;;;;;;;3.70;2.30;;;;;;;9.93;97.19;99928.00;4994554;28;20254;-83
2024/02/06 10:57:05;;;;;;;5.63;2.23;;;;;;;9.93;97.32;99928.00;5000425;28;20216;-80
2024/02/06 10:59:36;;;;;;;5.53;2.43;;;;;;;9.93;97.59;99920.03;4996143;28;20203;-82
2024/02/06 11:02:12;;;;;;;4.10;2.50;;;;;;;9.92;97.69;99928.97;4995464;28;20207;-80
2024/02/06 11:04:40;;;;;;;4.93;2.77;;;;;;;9.89;97.91;99922.06;4995157;28;20205;-80
2024/02/06 11:07:11;;;;;;;4.73;2.93;;;;;;;9.91;98.04;99925.47;4994677;28;20295;-80
2024/02/06 11:09:40;;;;;;;4.83;2.67;;;;;;;9.93;97.96;99909.38;5000733;28;20227;-82
2024/02/06 11:12:10;;;;;;;3.77;2.40;;;;;;;9.92;98.05;99915.66;4993520;28;20216;-79
2024/02/06 11:14:39;;;;;;;5.10;2.27;;;;;;;9.95;97.91;99915.44;4988687;28;20270;-82
2024/02/06 11:17:09;;;;;;;4.93;2.10;;;;;;;9.93;98.16;99904.91;5002743;28;20785;-81
2024/02/06 11:19:45;;;;;;;4.07;2.53;;;;;;;9.93;98.71;99896.94;5000837;28;20210;-80
2024/02/06 11:22:19;;;;;;;4.03;2.00;;;;;;;9.96;98.53;99880.75;5001061;28;20299;-81
2024/02/06 11:24:49;;;;;;;5.23;2.70;;;;;;;9.92;98.18;99889.06;5000260;28;20207;-80
2024/02/06 11:27:16;;;;;;;2.63;2.33;;;;;;;9.91;98.41;99884.72;5002882;28;20237;-79